Time;durP1;ratioP1;P1;durP2;ratioP2;P2;SDS_P1;SDS_P2;PMS_P1;PMS_P2;Temp;Humidity;BMP_temperature;BMP_pressure;BME280_temperature;BME280_humidity;BME280_pressure;Samples;Min_cycle;Max_cycle;Signal;HPM_P1;HPM_P2
2021/03/14 00:01:23;;;;;;;17.70;2.10;;;;;;;;;;5020503;28;20010;-53
2021/03/14 00:03:50;;;;;;;7.82;2.13;;;;;;;;;;5018783;28;20521;-49
2021/03/14 00:06:17;;;;;;;10.40;1.85;;;;;;;;;;5020791;28;20025;-50
2021/03/14 00:08:44;;;;;;;7.95;2.20;;;;;;;;;;5021739;28;20025;-50
2021/03/14 00:11:11;;;;;;;9.50;2.35;;;;;;;;;;5024263;28;20056;-53
2021/03/14 00:13:39;;;;;;;4.80;1.80;;;;;;;;;;5019432;28;20017;-50
2021/03/14 00:16:07;;;;;;;9.55;3.60;;;;;;;;;;5024484;28;20032;-56
2021/03/14 00:18:36;;;;;;;13.68;3.13;;;;;;;;;;5023807;28;20457;-53
2021/03/14 00:21:04;;;;;;;7.20;3.25;;;;;;;;;;5024573;28;20025;-47
2021/03/14 00:23:32;;;;;;;8.43;3.67;;;;;;;;;;5024881;28;20442;-48
2021/03/14 00:25:59;;;;;;;11.45;3.30;;;;;;;;;;5021645;28;20100;-48
2021/03/14 00:28:26;;;;;;;7.13;3.17;;;;;;;;;;5024157;28;20091;-47
2021/03/14 00:30:53;;;;;;;7.57;2.20;;;;;;;;;;5021095;28;20034;-47
2021/03/14 00:33:21;;;;;;;15.93;3.40;;;;;;;;;;5018594;28;20032;-51
2021/03/14 00:35:48;;;;;;;8.77;2.85;;;;;;;;;;5025186;28;20053;-46
2021/03/14 00:38:15;;;;;;;8.32;3.00;;;;;;;;;;5013776;28;20041;-50
2021/03/14 00:40:42;;;;;;;12.52;3.33;;;;;;;;;;5020508;28;20477;-48
2021/03/14 00:43:09;;;;;;;10.40;3.40;;;;;;;;;;5014730;28;20481;-46
2021/03/14 00:45:37;;;;;;;14.65;3.78;;;;;;;;;;5018272;28;20043;-47
2021/03/14 00:48:06;;;;;;;10.25;3.90;;;;;;;;;;5017492;28;20081;-48
2021/03/14 00:50:37;;;;;;;9.85;4.15;;;;;;;;;;5020347;28;20091;-48
2021/03/14 00:53:05;;;;;;;17.58;4.40;;;;;;;;;;5019792;28;20024;-48
2021/03/14 00:55:32;;;;;;;6.93;4.03;;;;;;;;;;5012764;28;20081;-49
2021/03/14 00:57:59;;;;;;;6.35;3.35;;;;;;;;;;5020630;28;21100;-46
2021/03/14 01:00:26;;;;;;;10.10;4.78;;;;;;;;;;5018438;28;20026;-49
2021/03/14 01:02:53;;;;;;;14.55;4.50;;;;;;;;;;5022042;28;20025;-45
2021/03/14 01:05:21;;;;;;;9.38;4.15;;;;;;;;;;5021471;28;20373;-44
2021/03/14 01:07:48;;;;;;;9.02;3.45;;;;;;;;;;5004168;28;20405;-47
2021/03/14 01:10:15;;;;;;;7.50;3.80;;;;;;;;;;5019753;28;20045;-46
2021/03/14 01:12:42;;;;;;;10.32;3.75;;;;;;;;;;5017495;28;20022;-48
2021/03/14 01:15:10;;;;;;;10.05;4.50;;;;;;;;;;5019235;28;20026;-46
2021/03/14 01:17:40;;;;;;;11.50;4.97;;;;;;;;;;5026839;28;20017;-47
2021/03/14 01:20:09;;;;;;;8.07;3.90;;;;;;;;;;5016620;28;20079;-47
2021/03/14 01:22:36;;;;;;;7.03;3.63;;;;;;;;;;5022456;28;20121;-46
2021/03/14 01:25:04;;;;;;;7.57;3.33;;;;;;;;;;5021604;28;20025;-47
2021/03/14 01:27:31;;;;;;;7.55;3.15;;;;;;;;;;5025127;28;20018;-45
2021/03/14 01:29:58;;;;;;;4.00;2.40;;;;;;;;;;5022661;28;20049;-46
2021/03/14 01:32:25;;;;;;;7.97;2.40;;;;;;;;;;5023250;28;20022;-46
2021/03/14 01:34:52;;;;;;;3.58;2.17;;;;;;;;;;5021499;28;20503;-47
2021/03/14 01:37:19;;;;;;;5.85;2.40;;;;;;;;;;5010926;28;20068;-46
2021/03/14 01:39:47;;;;;;;7.32;2.50;;;;;;;;;;5021943;28;20104;-46
2021/03/14 01:42:14;;;;;;;5.18;1.90;;;;;;;;;;5005756;28;20022;-49
2021/03/14 01:44:43;;;;;;;4.68;2.13;;;;;;;;;;5010279;28;20489;-47
2021/03/14 01:47:11;;;;;;;3.13;1.90;;;;;;;;;;5018727;28;20034;-47
2021/03/14 01:49:39;;;;;;;4.43;1.83;;;;;;;;;;5019223;28;20064;-47
2021/03/14 01:52:06;;;;;;;4.85;2.25;;;;;;;;;;5025206;28;20033;-47
2021/03/14 01:54:34;;;;;;;3.35;1.58;;;;;;;;;;5020778;28;20033;-46
2021/03/14 01:57:00;;;;;;;4.38;1.80;;;;;;;;;;5021251;28;20018;-48
2021/03/14 01:59:28;;;;;;;4.55;1.95;;;;;;;;;;5025188;28;20386;-46
2021/03/14 02:01:56;;;;;;;3.78;1.75;;;;;;;;;;5020619;28;20104;-48
2021/03/14 02:04:23;;;;;;;14.43;2.42;;;;;;;;;;5024116;28;20096;-47
2021/03/14 02:06:50;;;;;;;5.90;1.83;;;;;;;;;;5010185;28;20358;-51
2021/03/14 02:09:17;;;;;;;6.03;1.90;;;;;;;;;;5023562;28;20476;-51
2021/03/14 02:11:46;;;;;;;5.20;1.70;;;;;;;;;;5020783;28;20018;-49
2021/03/14 02:14:15;;;;;;;4.60;2.08;;;;;;;;;;5022335;28;20050;-48
2021/03/14 02:16:43;;;;;;;2.92;1.60;;;;;;;;;;5020528;28;20028;-45
2021/03/14 02:19:17;;;;;;;4.30;1.98;;;;;;;;;;5011293;28;20021;-47
2021/03/14 02:21:44;;;;;;;4.32;1.90;;;;;;;;;;5025612;28;20517;-48
2021/03/14 02:24:15;;;;;;;6.78;1.63;;;;;;;;;;5021378;28;20026;-48
2021/03/14 02:26:46;;;;;;;5.47;1.70;;;;;;;;;;5025556;28;20056;-49
2021/03/14 02:29:19;;;;;;;3.72;1.60;;;;;;;;;;5016662;28;20066;-48
2021/03/14 02:31:47;;;;;;;3.63;1.50;;;;;;;;;;5026584;28;20117;-49
2021/03/14 02:34:19;;;;;;;4.60;1.63;;;;;;;;;;5020008;28;20018;-49
2021/03/14 02:36:46;;;;;;;2.13;1.37;;;;;;;;;;5019005;28;20040;-48
2021/03/14 02:39:15;;;;;;;1.58;1.13;;;;;;;;;;5019223;28;20284;-49
2021/03/14 02:41:43;;;;;;;2.95;1.15;;;;;;;;;;5031259;28;20032;-50
2021/03/14 02:44:13;;;;;;;9.43;1.88;;;;;;;;;;5031856;28;20025;-51
2021/03/14 02:46:40;;;;;;;6.93;1.75;;;;;;;;;;5028704;28;20547;-48
2021/03/14 02:49:08;;;;;;;13.27;1.63;;;;;;;;;;5022056;28;20046;-47
2021/03/14 02:51:35;;;;;;;12.18;1.88;;;;;;;;;;5025578;28;20033;-46
2021/03/14 02:54:02;;;;;;;5.07;1.40;;;;;;;;;;5021603;28;20094;-45
2021/03/14 02:56:29;;;;;;;5.82;1.45;;;;;;;;;;5010040;28;20026;-47
2021/03/14 02:58:57;;;;;;;4.63;1.30;;;;;;;;;;5022794;28;20026;-45
2021/03/14 03:01:25;;;;;;;3.25;1.40;;;;;;;;;;5007547;28;20428;-46
2021/03/14 03:03:52;;;;;;;5.43;2.05;;;;;;;;;;5028820;28;20029;-48
2021/03/14 03:06:20;;;;;;;3.13;1.52;;;;;;;;;;5024675;28;20018;-46
2021/03/14 03:08:47;;;;;;;4.65;1.73;;;;;;;;;;5034192;28;20070;-48
2021/03/14 03:11:15;;;;;;;8.02;1.70;;;;;;;;;;5027353;28;20539;-48
2021/03/14 03:13:43;;;;;;;3.33;1.20;;;;;;;;;;5017728;28;20701;-45
2021/03/14 03:16:14;;;;;;;3.85;2.20;;;;;;;;;;5020494;28;20037;-47
2021/03/14 03:18:42;;;;;;;8.15;2.15;;;;;;;;;;5028829;28;20460;-47
2021/03/14 03:21:11;;;;;;;3.17;1.30;;;;;;;;;;5025729;28;20030;-45
2021/03/14 03:23:38;;;;;;;2.25;1.30;;;;;;;;;;5018377;28;20017;-43
2021/03/14 03:26:06;;;;;;;2.83;0.98;;;;;;;;;;5019286;28;20045;-44
2021/03/14 03:28:34;;;;;;;2.22;1.40;;;;;;;;;;5024648;28;20148;-44
2021/03/14 03:31:02;;;;;;;4.20;1.27;;;;;;;;;;5013314;28;20393;-45
2021/03/14 03:33:29;;;;;;;1.75;1.10;;;;;;;;;;5028227;28;20013;-49
2021/03/14 03:35:56;;;;;;;10.38;5.35;;;;;;;;;;5018469;28;20061;-42
2021/03/14 03:38:23;;;;;;;3.83;2.05;;;;;;;;;;5026260;28;20468;-44
2021/03/14 03:40:51;;;;;;;8.77;2.70;;;;;;;;;;5020043;28;20037;-45
2021/03/14 03:43:22;;;;;;;9.48;1.85;;;;;;;;;;5010960;28;20112;-44
2021/03/14 03:45:51;;;;;;;3.33;1.40;;;;;;;;;;5020222;28;20025;-44
2021/03/14 03:48:23;;;;;;;2.42;1.00;;;;;;;;;;5005929;28;20080;-45
2021/03/14 03:50:54;;;;;;;2.65;0.75;;;;;;;;;;5024019;28;20401;-46
2021/03/14 03:53:21;;;;;;;6.13;1.08;;;;;;;;;;5014119;28;20046;-48
2021/03/14 03:55:50;;;;;;;3.67;0.90;;;;;;;;;;5011184;28;20022;-45
2021/03/14 03:58:18;;;;;;;2.35;1.00;;;;;;;;;;5031199;28;20021;-47
2021/03/14 04:00:45;;;;;;;1.08;0.65;;;;;;;;;;5031703;28;20467;-43
2021/03/14 04:03:13;;;;;;;7.80;3.13;;;;;;;;;;5031439;28;20053;-45
2021/03/14 04:05:41;;;;;;;5.95;2.40;;;;;;;;;;5031647;28;20079;-43
2021/03/14 04:08:08;;;;;;;2.15;1.05;;;;;;;;;;5028376;28;20061;-44
2021/03/14 04:10:35;;;;;;;1.40;0.88;;;;;;;;;;5025348;28;20120;-42
2021/03/14 04:13:02;;;;;;;5.30;1.08;;;;;;;;;;5031204;28;20373;-43
2021/03/14 04:15:31;;;;;;;1.65;0.82;;;;;;;;;;5031578;28;20025;-44
2021/03/14 04:17:59;;;;;;;1.15;0.65;;;;;;;;;;5030905;28;20463;-43
2021/03/14 04:20:33;;;;;;;1.38;0.77;;;;;;;;;;5031386;28;20029;-42
2021/03/14 04:23:03;;;;;;;1.55;0.77;;;;;;;;;;5031602;28;20017;-42
2021/03/14 04:25:31;;;;;;;2.65;0.70;;;;;;;;;;5031332;28;20040;-42
2021/03/14 04:27:58;;;;;;;6.28;0.93;;;;;;;;;;5030871;28;20022;-44
2021/03/14 04:30:26;;;;;;;3.17;0.90;;;;;;;;;;5031065;28;20532;-43
2021/03/14 04:32:53;;;;;;;0.90;0.70;;;;;;;;;;5031785;28;20026;-43
2021/03/14 04:35:21;;;;;;;4.38;1.00;;;;;;;;;;5031341;28;20021;-43
2021/03/14 04:37:49;;;;;;;4.30;0.95;;;;;;;;;;5031485;28;20052;-44
2021/03/14 04:40:16;;;;;;;5.68;0.70;;;;;;;;;;5030887;28;20026;-44
2021/03/14 04:42:46;;;;;;;4.63;1.05;;;;;;;;;;5031279;28;20403;-44
2021/03/14 04:45:14;;;;;;;5.07;0.70;;;;;;;;;;5031224;28;20048;-45
2021/03/14 04:47:45;;;;;;;1.67;0.88;;;;;;;;;;5031409;28;20030;-44
2021/03/14 04:50:13;;;;;;;2.15;0.75;;;;;;;;;;5032637;28;20034;-44
2021/03/14 04:52:41;;;;;;;4.28;0.80;;;;;;;;;;5035641;28;20029;-43
2021/03/14 04:55:10;;;;;;;2.35;0.95;;;;;;;;;;5035011;28;20033;-45
2021/03/14 04:57:39;;;;;;;2.45;0.73;;;;;;;;;;5035590;28;20167;-44
2021/03/14 05:00:08;;;;;;;0.90;0.52;;;;;;;;;;5034935;28;20036;-44
2021/03/14 05:02:35;;;;;;;5.30;1.42;;;;;;;;;;5017960;28;20417;-44
2021/03/14 05:05:03;;;;;;;1.75;1.00;;;;;;;;;;5035042;28;20021;-46
2021/03/14 05:07:30;;;;;;;3.28;0.90;;;;;;;;;;5033120;28;20029;-46
2021/03/14 05:09:57;;;;;;;2.45;1.38;;;;;;;;;;5032994;28;20025;-45
2021/03/14 05:12:25;;;;;;;6.65;1.58;;;;;;;;;;5034614;28;20350;-43
2021/03/14 05:14:52;;;;;;;4.65;1.05;;;;;;;;;;5035161;28;20469;-45
2021/03/14 05:17:19;;;;;;;4.13;1.50;;;;;;;;;;5033604;28;20426;-45
2021/03/14 05:19:46;;;;;;;3.13;1.30;;;;;;;;;;5020255;28;20496;-47
2021/03/14 05:22:13;;;;;;;3.45;1.30;;;;;;;;;;5034359;28;20466;-45
2021/03/14 05:24:41;;;;;;;2.95;1.20;;;;;;;;;;5015319;28;20513;-43
2021/03/14 05:27:09;;;;;;;4.80;1.17;;;;;;;;;;5024689;28;20033;-44
2021/03/14 05:29:37;;;;;;;2.05;1.38;;;;;;;;;;5034850;28;20034;-46
2021/03/14 05:32:04;;;;;;;3.17;1.02;;;;;;;;;;5034461;28;20477;-43
2021/03/14 05:34:31;;;;;;;2.75;1.10;;;;;;;;;;5034860;28;20405;-46
2021/03/14 05:36:58;;;;;;;2.22;1.20;;;;;;;;;;5033705;28;20049;-44
2021/03/14 05:39:25;;;;;;;2.70;1.30;;;;;;;;;;5034585;28;20135;-44
2021/03/14 05:41:52;;;;;;;2.00;1.13;;;;;;;;;;5034155;28;20032;-44
2021/03/14 05:44:19;;;;;;;3.78;1.40;;;;;;;;;;5034753;28;20028;-43
2021/03/14 05:46:46;;;;;;;5.00;1.20;;;;;;;;;;5034062;28;20611;-43
2021/03/14 05:49:13;;;;;;;3.63;1.27;;;;;;;;;;5034238;28;20065;-44
2021/03/14 05:51:45;;;;;;;3.05;1.50;;;;;;;;;;5034138;28;20025;-44
2021/03/14 05:54:12;;;;;;;3.45;1.08;;;;;;;;;;5034175;28;20022;-43
2021/03/14 05:56:41;;;;;;;2.88;1.50;;;;;;;;;;5034382;28;20362;-44
2021/03/14 05:59:09;;;;;;;2.95;1.20;;;;;;;;;;5033852;28;20029;-46
2021/03/14 06:01:37;;;;;;;1.92;1.23;;;;;;;;;;5033038;28;20041;-46
2021/03/14 06:04:04;;;;;;;4.72;1.17;;;;;;;;;;5033722;28;20021;-44
2021/03/14 06:06:31;;;;;;;2.75;1.30;;;;;;;;;;5034487;28;20032;-44
2021/03/14 06:08:58;;;;;;;4.28;1.38;;;;;;;;;;5033560;28;20473;-44
2021/03/14 06:11:25;;;;;;;1.60;1.13;;;;;;;;;;5034181;28;20034;-45
2021/03/14 06:13:52;;;;;;;2.45;1.15;;;;;;;;;;5033706;28;20052;-43
2021/03/14 06:16:19;;;;;;;3.00;1.30;;;;;;;;;;5016305;28;20393;-43
2021/03/14 06:18:47;;;;;;;2.45;1.10;;;;;;;;;;5033315;28;20026;-43
2021/03/14 06:21:24;;;;;;;5.25;1.38;;;;;;;;;;5034124;28;20035;-43
2021/03/14 06:23:55;;;;;;;3.80;1.20;;;;;;;;;;5033598;28;20377;-44
2021/03/14 06:26:31;;;;;;;5.55;1.60;;;;;;;;;;5033892;28;20029;-46
2021/03/14 06:28:58;;;;;;;4.78;1.25;;;;;;;;;;5033121;28;20076;-43
2021/03/14 06:31:25;;;;;;;5.00;1.35;;;;;;;;;;5033796;28;20053;-45
2021/03/14 06:33:52;;;;;;;3.65;1.90;;;;;;;;;;5033142;28;20033;-43
2021/03/14 06:36:20;;;;;;;3.88;1.90;;;;;;;;;;5033830;28;20026;-44
2021/03/14 06:38:49;;;;;;;3.67;1.50;;;;;;;;;;5033608;28;20429;-44
2021/03/14 06:41:17;;;;;;;3.25;1.10;;;;;;;;;;5033333;28;20030;-44
2021/03/14 06:43:46;;;;;;;2.78;1.45;;;;;;;;;;5033469;28;20049;-44
2021/03/14 06:46:39;;;;;;;3.28;1.30;;;;;;;;;;5032797;28;20044;-43
2021/03/14 06:49:12;;;;;;;3.38;1.30;;;;;;;;;;5029889;28;20123;-44
2021/03/14 06:51:43;;;;;;;6.00;1.90;;;;;;;;;;5032980;28;20428;-44
2021/03/14 06:54:24;;;;;;;5.05;1.35;;;;;;;;;;5033466;28;20489;-46
2021/03/14 06:56:57;;;;;;;6.57;1.35;;;;;;;;;;5015191;28;20484;-44
2021/03/14 06:59:24;;;;;;;3.08;1.00;;;;;;;;;;5033180;28;20021;-45
2021/03/14 07:01:58;;;;;;;3.97;1.20;;;;;;;;;;5032791;28;20024;-45
2021/03/14 07:04:32;;;;;;;2.80;1.67;;;;;;;;;;5033291;28;20080;-43
2021/03/14 07:07:00;;;;;;;4.82;1.35;;;;;;;;;;5032855;28;20096;-44
2021/03/14 07:09:27;;;;;;;4.63;1.50;;;;;;;;;;5032731;28;20104;-45
2021/03/14 07:11:54;;;;;;;3.45;1.30;;;;;;;;;;5032476;28;20036;-45
2021/03/14 07:14:21;;;;;;;3.58;1.50;;;;;;;;;;5032837;28;20100;-44
2021/03/14 07:16:52;;;;;;;3.17;1.48;;;;;;;;;;5032490;28;20083;-45
2021/03/14 07:19:29;;;;;;;6.70;1.35;;;;;;;;;;5032764;28;20057;-45
2021/03/14 07:21:59;;;;;;;2.50;1.20;;;;;;;;;;5032240;28;20021;-43
2021/03/14 07:24:30;;;;;;;3.97;1.30;;;;;;;;;;5032934;28;20040;-44
2021/03/14 07:26:57;;;;;;;4.05;1.20;;;;;;;;;;5032307;28;20067;-45
2021/03/14 07:29:25;;;;;;;2.95;1.48;;;;;;;;;;5032599;28;20044;-43
2021/03/14 07:31:52;;;;;;;5.68;1.48;;;;;;;;;;5032222;28;20385;-43
2021/03/14 07:34:19;;;;;;;3.75;1.20;;;;;;;;;;5032654;28;20092;-44
2021/03/14 07:36:48;;;;;;;3.65;1.23;;;;;;;;;;5032063;28;20401;-44
2021/03/14 07:39:15;;;;;;;1.92;1.60;;;;;;;;;;5032414;28;20021;-43
2021/03/14 07:41:42;;;;;;;1.98;1.30;;;;;;;;;;5032102;28;20041;-48
2021/03/14 07:44:09;;;;;;;3.42;1.10;;;;;;;;;;5031943;28;20034;-43
2021/03/14 07:46:37;;;;;;;4.75;1.23;;;;;;;;;;5032549;28;20044;-46
2021/03/14 07:49:06;;;;;;;2.65;1.15;;;;;;;;;;5031356;28;20398;-43
2021/03/14 07:51:33;;;;;;;2.28;1.17;;;;;;;;;;5032266;28;20037;-44
2021/03/14 07:54:02;;;;;;;3.30;1.27;;;;;;;;;;5031918;28;20097;-44
2021/03/14 07:56:32;;;;;;;3.10;1.10;;;;;;;;;;5032252;28;20033;-43
2021/03/14 07:58:59;;;;;;;4.43;1.30;;;;;;;;;;5031886;28;20512;-42
2021/03/14 08:01:27;;;;;;;3.38;1.15;;;;;;;;;;5032086;28;20037;-46
2021/03/14 08:03:56;;;;;;;4.90;1.33;;;;;;;;;;5031735;28;20021;-44
2021/03/14 08:06:43;;;;;;;2.40;1.08;;;;;;;;;;5032129;28;20029;-43
2021/03/14 08:09:10;;;;;;;5.55;1.10;;;;;;;;;;5018230;28;20042;-45
2021/03/14 08:11:37;;;;;;;2.35;1.10;;;;;;;;;;5031989;28;20040;-48
2021/03/14 08:14:04;;;;;;;5.82;1.17;;;;;;;;;;5031386;28;20026;-46
2021/03/14 08:16:31;;;;;;;3.45;1.20;;;;;;;;;;5031953;28;20025;-45
2021/03/14 08:19:11;;;;;;;5.53;1.40;;;;;;;;;;5013830;28;20025;-47
2021/03/14 08:21:38;;;;;;;4.30;1.25;;;;;;;;;;5031785;28;20033;-48
2021/03/14 08:24:05;;;;;;;1.58;1.00;;;;;;;;;;5031076;28;20026;-45
2021/03/14 08:26:34;;;;;;;2.85;1.13;;;;;;;;;;5031805;28;20033;-48
2021/03/14 08:29:01;;;;;;;4.10;1.27;;;;;;;;;;5031117;28;20385;-43
2021/03/14 08:31:38;;;;;;;4.32;1.35;;;;;;;;;;5031831;28;20087;-44
2021/03/14 08:34:06;;;;;;;4.88;1.00;;;;;;;;;;5031280;28;20025;-45
2021/03/14 08:36:34;;;;;;;4.47;1.10;;;;;;;;;;5031852;28;20505;-44
2021/03/14 08:39:02;;;;;;;6.55;1.02;;;;;;;;;;5031510;28;20030;-44
2021/03/14 08:41:47;;;;;;;4.55;1.00;;;;;;;;;;5031395;28;20060;-43
2021/03/14 08:44:30;;;;;;;8.63;1.13;;;;;;;;;;5031434;28;20052;-43
2021/03/14 08:46:56;;;;;;;8.73;1.10;;;;;;;;;;5032106;28;20026;-42
2021/03/14 08:49:24;;;;;;;3.58;1.10;;;;;;;;;;5030887;28;20559;-42
2021/03/14 08:51:51;;;;;;;6.30;1.08;;;;;;;;;;5031814;28;20027;-43
2021/03/14 08:54:25;;;;;;;1.77;0.98;;;;;;;;;;5031455;28;20048;-42
2021/03/14 08:56:56;;;;;;;4.72;1.25;;;;;;;;;;5031512;28;20500;-45
2021/03/14 08:59:24;;;;;;;3.22;0.82;;;;;;;;;;5031500;28;20500;-43
2021/03/14 09:01:59;;;;;;;1.67;1.00;;;;;;;;;;5030975;28;20057;-44
2021/03/14 09:04:30;;;;;;;1.30;0.80;;;;;;;;;;5031829;28;20025;-43
2021/03/14 09:07:10;;;;;;;2.80;0.97;;;;;;;;;;5030808;28;20035;-44
2021/03/14 09:09:38;;;;;;;5.57;1.27;;;;;;;;;;5031319;28;20073;-43
2021/03/14 09:12:11;;;;;;;3.42;1.13;;;;;;;;;;5030063;28;20075;-44
2021/03/14 09:14:43;;;;;;;6.10;1.33;;;;;;;;;;5031579;28;20025;-43
2021/03/14 09:17:18;;;;;;;5.68;1.00;;;;;;;;;;5031188;28;20025;-44
2021/03/14 09:19:52;;;;;;;2.45;1.17;;;;;;;;;;5031147;28;20037;-44
2021/03/14 09:22:22;;;;;;;2.42;1.48;;;;;;;;;;5030775;28;20045;-43
2021/03/14 09:24:51;;;;;;;6.80;1.20;;;;;;;;;;5013651;28;20393;-44
2021/03/14 09:27:22;;;;;;;5.25;1.20;;;;;;;;;;5031116;28;20021;-43
2021/03/14 09:30:02;;;;;;;3.03;1.60;;;;;;;;;;5031241;28;20537;-43
2021/03/14 09:32:31;;;;;;;11.95;4.25;;;;;;;;;;5030835;28;20386;-43
2021/03/14 09:35:17;;;;;;;16.70;5.40;;;;;;;;;;5031228;28;20041;-43
2021/03/14 09:37:51;;;;;;;13.10;5.90;;;;;;;;;;5033938;28;20078;-45
2021/03/14 09:40:20;;;;;;;11.00;4.90;;;;;;;;;;5034886;28;20096;-43
2021/03/14 09:42:51;;;;;;;11.65;4.20;;;;;;;;;;5034095;28;20026;-44
2021/03/14 09:45:23;;;;;;;11.77;4.72;;;;;;;;;;5034590;28;20428;-45
2021/03/14 09:47:58;;;;;;;8.83;4.27;;;;;;;;;;5034036;28;20053;-44
2021/03/14 09:50:26;;;;;;;7.28;3.97;;;;;;;;;;5033430;28;20371;-43
2021/03/14 09:52:53;;;;;;;6.70;3.85;;;;;;;;;;5033754;28;20018;-43
2021/03/14 09:55:31;;;;;;;8.40;3.75;;;;;;;;;;5034553;28;20039;-45
2021/03/14 09:57:59;;;;;;;8.32;3.35;;;;;;;;;;5034010;28;20031;-44
2021/03/14 10:00:27;;;;;;;10.50;3.45;;;;;;;;;;5034624;28;20028;-43
2021/03/14 10:02:54;;;;;;;7.45;3.60;;;;;;;;;;5033776;28;20499;-44
2021/03/14 10:05:21;;;;;;;9.02;3.80;;;;;;;;;;5034382;28;20025;-44
2021/03/14 10:07:52;;;;;;;10.05;3.67;;;;;;;;;;5033865;28;20533;-45
2021/03/14 10:10:20;;;;;;;9.23;3.88;;;;;;;;;;5034444;28;20492;-44
2021/03/14 10:12:47;;;;;;;10.18;3.28;;;;;;;;;;5033667;28;20038;-44
2021/03/14 10:15:18;;;;;;;9.45;3.65;;;;;;;;;;5034155;28;20543;-45
2021/03/14 10:17:46;;;;;;;5.93;3.03;;;;;;;;;;5033939;28;20132;-43
2021/03/14 10:20:13;;;;;;;8.65;3.40;;;;;;;;;;5033890;28;20597;-46
2021/03/14 10:22:41;;;;;;;5.40;3.03;;;;;;;;;;5033809;28;20486;-43
2021/03/14 10:25:22;;;;;;;6.45;3.03;;;;;;;;;;5033678;28;20029;-43
2021/03/14 10:27:50;;;;;;;5.33;2.57;;;;;;;;;;5034164;28;20022;-45
2021/03/14 10:30:18;;;;;;;7.22;3.28;;;;;;;;;;5033319;28;20056;-44
2021/03/14 10:32:47;;;;;;;8.93;2.58;;;;;;;;;;5033682;28;20153;-44
2021/03/14 10:35:14;;;;;;;5.88;2.78;;;;;;;;;;5033252;28;20083;-44
2021/03/14 10:37:42;;;;;;;6.32;2.88;;;;;;;;;;5033657;28;20025;-44
2021/03/14 10:40:11;;;;;;;8.98;2.90;;;;;;;;;;5033147;28;20171;-43
2021/03/14 10:42:39;;;;;;;5.47;2.58;;;;;;;;;;5033641;28;20034;-44
2021/03/14 10:45:11;;;;;;;5.50;3.10;;;;;;;;;;5032971;28;20033;-47
2021/03/14 10:47:39;;;;;;;7.75;2.92;;;;;;;;;;5032727;28;20462;-46
2021/03/14 10:50:07;;;;;;;5.15;2.70;;;;;;;;;;5032918;28;20048;-44
2021/03/14 10:52:34;;;;;;;7.72;2.95;;;;;;;;;;5033489;28;20032;-43
2021/03/14 10:55:01;;;;;;;6.85;2.78;;;;;;;;;;5032840;28;20033;-49
2021/03/14 10:57:28;;;;;;;10.80;3.10;;;;;;;;;;5033226;28;20022;-43
2021/03/14 11:00:05;;;;;;;7.15;3.00;;;;;;;;;;5015570;28;20032;-44
2021/03/14 11:02:42;;;;;;;6.03;2.47;;;;;;;;;;5032908;28;20061;-44
2021/03/14 11:05:09;;;;;;;4.82;2.45;;;;;;;;;;5032167;28;20658;-44
2021/03/14 11:07:37;;;;;;;8.38;2.95;;;;;;;;;;5032623;28;20116;-45
2021/03/14 11:10:11;;;;;;;9.23;3.28;;;;;;;;;;5032499;28;20032;-42
2021/03/14 11:12:39;;;;;;;6.93;3.30;;;;;;;;;;5033064;28;20018;-46
2021/03/14 11:15:06;;;;;;;9.73;3.53;;;;;;;;;;5032585;28;20067;-43
2021/03/14 11:17:36;;;;;;;7.63;3.38;;;;;;;;;;5032661;28;20041;-45
2021/03/14 11:20:05;;;;;;;9.23;3.70;;;;;;;;;;5033134;28;20384;-45
2021/03/14 11:22:32;;;;;;;6.40;3.13;;;;;;;;;;5032248;28;20067;-45
2021/03/14 11:24:59;;;;;;;10.75;3.38;;;;;;;;;;5032574;28;20032;-44
2021/03/14 11:27:26;;;;;;;8.80;3.35;;;;;;;;;;5032355;28;20026;-46
2021/03/14 11:29:53;;;;;;;7.70;3.10;;;;;;;;;;5032585;28;20068;-47
2021/03/14 11:32:21;;;;;;;10.18;3.45;;;;;;;;;;5032216;28;20036;-45
2021/03/14 11:34:48;;;;;;;7.93;3.45;;;;;;;;;;5032594;28;20032;-44
2021/03/14 11:37:15;;;;;;;53.28;28.63;;;;;;;;;;5032132;28;20021;-44
2021/03/14 11:39:42;;;;;;;84.00;42.65;;;;;;;;;;5032545;28;20470;-43
2021/03/14 11:42:11;;;;;;;114.20;64.32;;;;;;;;;;5032124;28;20117;-45
2021/03/14 11:44:38;;;;;;;127.30;67.28;;;;;;;;;;5031929;28;20411;-44
2021/03/14 11:47:05;;;;;;;64.35;36.92;;;;;;;;;;5032079;28;20096;-44
2021/03/14 11:49:32;;;;;;;45.65;24.02;;;;;;;;;;5032396;28;20041;-45
2021/03/14 11:51:59;;;;;;;30.15;14.93;;;;;;;;;;5031605;28;20030;-43
2021/03/14 11:54:26;;;;;;;20.13;10.50;;;;;;;;;;5032215;28;20026;-43
2021/03/14 11:56:53;;;;;;;21.17;9.38;;;;;;;;;;5031895;28;20473;-45
2021/03/14 11:59:20;;;;;;;17.58;8.90;;;;;;;;;;5031458;28;20043;-46
2021/03/14 12:01:49;;;;;;;15.00;8.18;;;;;;;;;;5032190;28;20018;-45
2021/03/14 12:04:18;;;;;;;14.70;7.82;;;;;;;;;;5031593;28;20034;-45
2021/03/14 12:06:45;;;;;;;14.75;7.57;;;;;;;;;;5032207;28;20029;-46
2021/03/14 12:09:12;;;;;;;8.32;5.43;;;;;;;;;;5031445;28;20029;-45
2021/03/14 12:11:39;;;;;;;10.07;5.57;;;;;;;;;;5031967;28;20029;-47
2021/03/14 12:14:06;;;;;;;11.20;5.00;;;;;;;;;;5031405;28;20040;-44
2021/03/14 12:16:33;;;;;;;11.35;3.60;;;;;;;;;;5032173;28;20109;-47
2021/03/14 12:19:00;;;;;;;6.68;2.72;;;;;;;;;;5031728;28;20444;-44
2021/03/14 12:21:27;;;;;;;6.55;2.55;;;;;;;;;;5032191;28;20104;-44
2021/03/14 12:23:54;;;;;;;9.20;2.72;;;;;;;;;;5031363;28;20032;-43
2021/03/14 12:26:22;;;;;;;7.65;2.70;;;;;;;;;;5030572;28;20029;-43
2021/03/14 12:28:49;;;;;;;6.80;2.90;;;;;;;;;;5024370;28;20033;-42
2021/03/14 12:31:16;;;;;;;11.50;3.38;;;;;;;;;;5029924;28;20037;-43
2021/03/14 12:33:44;;;;;;;6.63;2.30;;;;;;;;;;5026796;28;20039;-43
2021/03/14 12:36:13;;;;;;;7.95;2.72;;;;;;;;;;5017998;28;20044;-43
2021/03/14 12:38:40;;;;;;;7.65;2.90;;;;;;;;;;5025309;28;20026;-43
2021/03/14 12:41:07;;;;;;;4.93;2.17;;;;;;;;;;5025681;28;20083;-43
2021/03/14 12:43:34;;;;;;;5.50;2.13;;;;;;;;;;5021457;28;20455;-44
2021/03/14 12:46:01;;;;;;;7.88;2.00;;;;;;;;;;5013241;28;20105;-44
2021/03/14 12:48:28;;;;;;;7.03;1.73;;;;;;;;;;5019275;28;20057;-43
2021/03/14 12:50:55;;;;;;;7.07;1.90;;;;;;;;;;5016541;28;20033;-43
2021/03/14 12:53:22;;;;;;;7.43;1.88;;;;;;;;;;5007008;28;20030;-43
2021/03/14 12:55:49;;;;;;;3.03;1.70;;;;;;;;;;5022559;28;20021;-43
2021/03/14 12:58:16;;;;;;;6.93;2.00;;;;;;;;;;5027524;28;20033;-43
2021/03/14 13:00:43;;;;;;;4.85;1.90;;;;;;;;;;5021419;28;20034;-43
2021/03/14 13:03:10;;;;;;;4.20;1.80;;;;;;;;;;5027139;28;20013;-43
2021/03/14 13:05:37;;;;;;;4.28;2.10;;;;;;;;;;5023126;28;20025;-42
2021/03/14 13:08:04;;;;;;;6.95;1.90;;;;;;;;;;5026785;28;20029;-43
2021/03/14 13:10:32;;;;;;;3.42;1.70;;;;;;;;;;5009678;28;20082;-44
2021/03/14 13:12:59;;;;;;;37.63;3.47;;;;;;;;;;5029144;28;20022;-47
2021/03/14 13:15:26;;;;;;;12.93;2.42;;;;;;;;;;5013358;28;20030;-45
2021/03/14 13:17:53;;;;;;;6.20;1.85;;;;;;;;;;5032989;28;20026;-45
2021/03/14 13:20:20;;;;;;;7.78;1.88;;;;;;;;;;5024944;28;20025;-52
2021/03/14 13:22:47;;;;;;;12.43;2.42;;;;;;;;;;5019899;28;20022;-52
2021/03/14 13:25:15;;;;;;;3.33;1.60;;;;;;;;;;5024341;28;20032;-51
2021/03/14 13:27:47;;;;;;;3.10;1.80;;;;;;;;;;5031534;28;20582;-51
2021/03/14 13:30:14;;;;;;;4.78;1.90;;;;;;;;;;5034479;28;20025;-48
2021/03/14 13:32:41;;;;;;;4.30;1.25;;;;;;;;;;5032605;28;20100;-46
2021/03/14 13:35:09;;;;;;;5.30;1.75;;;;;;;;;;5032441;28;20031;-49
2021/03/14 13:37:36;;;;;;;8.32;1.60;;;;;;;;;;5030448;28;20048;-49
2021/03/14 13:40:04;;;;;;;4.93;1.80;;;;;;;;;;5030573;28;20061;-48
2021/03/14 13:42:31;;;;;;;4.97;1.67;;;;;;;;;;5031660;28;20030;-49
2021/03/14 13:44:58;;;;;;;4.63;1.60;;;;;;;;;;5029229;28;20029;-47
2021/03/14 13:47:25;;;;;;;6.47;2.85;;;;;;;;;;5030994;28;20021;-47
2021/03/14 13:49:52;;;;;;;7.00;5.63;;;;;;;;;;5028632;28;20137;-46
2021/03/14 13:52:19;;;;;;;6.22;2.47;;;;;;;;;;5031208;28;20033;-49
2021/03/14 13:54:46;;;;;;;15.90;3.05;;;;;;;;;;5028498;28;20430;-64
2021/03/14 13:57:13;;;;;;;8.35;2.30;;;;;;;;;;5030992;28;20033;-49
2021/03/14 13:59:40;;;;;;;12.82;2.92;;;;;;;;;;5020168;28;20056;-48
2021/03/14 14:02:07;;;;;;;5.13;2.83;;;;;;;;;;5013867;28;20053;-55
2021/03/14 14:04:34;;;;;;;7.28;3.13;;;;;;;;;;5014898;28;20018;-54
2021/03/14 14:07:01;;;;;;;6.70;3.25;;;;;;;;;;5026838;28;20030;-53
2021/03/14 14:09:28;;;;;;;6.63;3.50;;;;;;;;;;5014829;28;20634;-58
2021/03/14 14:11:55;;;;;;;10.43;6.70;;;;;;;;;;5016467;28;20030;-61
2021/03/14 14:14:22;;;;;;;7.53;4.72;;;;;;;;;;5019697;28;20025;-58
2021/03/14 14:16:50;;;;;;;12.35;4.55;;;;;;;;;;5030791;28;20049;-61
2021/03/14 14:19:18;;;;;;;10.75;4.07;;;;;;;;;;5031588;28;20083;-60
2021/03/14 14:21:46;;;;;;;11.10;4.32;;;;;;;;;;5026804;28;20478;-58
2021/03/14 14:24:13;;;;;;;8.15;3.35;;;;;;;;;;5030586;28;20041;-59
2021/03/14 14:26:41;;;;;;;6.07;3.42;;;;;;;;;;5011259;28;20130;-53
2021/03/14 14:29:09;;;;;;;10.10;3.13;;;;;;;;;;5030725;28;20461;-54
2021/03/14 14:31:36;;;;;;;8.18;3.47;;;;;;;;;;5027496;28;20128;-48
2021/03/14 14:34:05;;;;;;;6.82;3.10;;;;;;;;;;5029751;28;20076;-50
2021/03/14 14:36:33;;;;;;;10.38;3.05;;;;;;;;;;5009095;28;21283;-51
2021/03/14 14:39:03;;;;;;;21.17;5.18;;;;;;;;;;5030508;28;20076;-56
2021/03/14 14:41:30;;;;;;;9.40;4.40;;;;;;;;;;5030293;28;20026;-56
2021/03/14 14:43:58;;;;;;;10.90;4.47;;;;;;;;;;5013214;28;20148;-56
2021/03/14 14:46:26;;;;;;;10.32;4.47;;;;;;;;;;5026606;28;20048;-57
2021/03/14 14:48:54;;;;;;;15.48;4.88;;;;;;;;;;5023327;28;20049;-54